createdAt,value
2022-11-13T00:01:17.185Z,97914.16
2022-11-13T00:03:51.061Z,97917.13
2022-11-13T00:06:19.204Z,97912.25
2022-11-13T00:08:46.464Z,97906.44
2022-11-13T00:11:16.041Z,97907.22
2022-11-13T00:13:43.311Z,97912.03
2022-11-13T00:16:14.604Z,97905.00
2022-11-13T00:18:44.283Z,97913.75
2022-11-13T00:21:19.403Z,97904.03
2022-11-13T00:23:46.298Z,97900.69
2022-11-13T00:26:21.674Z,97903.78
2022-11-13T00:28:58.944Z,97895.41
2022-11-13T00:31:28.572Z,97892.25
2022-11-13T00:34:25.909Z,97892.97
2022-11-13T00:36:45.255Z,97887.75
2022-11-13T00:39:11.748Z,97893.13
2022-11-13T00:41:43.231Z,97879.00
2022-11-13T00:44:09.912Z,97882.63
2022-11-13T00:46:38.658Z,97878.78
2022-11-13T00:49:05.394Z,97876.91
2022-11-13T00:51:32.068Z,97877.31
2022-11-13T00:53:58.698Z,97869.25
2022-11-13T00:56:27.702Z,97865.03
2022-11-13T00:58:54.216Z,97864.53
2022-11-13T01:01:23.301Z,97862.34
2022-11-13T01:03:49.926Z,97858.16
2022-11-13T01:06:22.086Z,97861.56
2022-11-13T01:08:51.088Z,97859.59
2022-11-13T01:11:20.058Z,97855.22
2022-11-13T01:13:50.998Z,97851.47
2022-11-13T01:16:20.133Z,97854.56
2022-11-13T01:18:46.863Z,97854.78
2022-11-13T01:21:24.851Z,97852.91
2022-11-13T01:23:54.636Z,97847.13
2022-11-13T01:26:31.845Z,97852.22
2022-11-13T01:28:59.875Z,97852.56
2022-11-13T01:31:29.352Z,97845.81
2022-11-13T01:33:56.255Z,97846.38
2022-11-13T01:36:30.086Z,97848.09
2022-11-13T01:38:59.353Z,97847.78
2022-11-13T01:41:32.922Z,97839.47
2022-11-13T01:44:03.304Z,97827.50
2022-11-13T01:46:41.079Z,97823.03
2022-11-13T01:49:10.281Z,97822.53
2022-11-13T01:51:44.016Z,97815.94
2022-11-13T01:54:18.089Z,97810.56
2022-11-13T01:56:47.933Z,97811.38
2022-11-13T01:59:36.010Z,97808.69
2022-11-13T02:02:02.591Z,97806.72
2022-11-13T02:04:30.140Z,97804.75
2022-11-13T02:07:05.257Z,97802.75
2022-11-13T02:09:36.808Z,97803.25
2022-11-13T02:12:06.087Z,97792.72
2022-11-13T02:14:36.076Z,97781.63
2022-11-13T02:17:06.051Z,97787.47
2022-11-13T02:19:38.215Z,97770.06
2022-11-13T02:22:07.714Z,97772.88
2022-11-13T02:24:44.849Z,97762.09
2022-11-13T02:27:25.025Z,97761.25
2022-11-13T02:29:51.518Z,97753.13
2022-11-13T02:32:18.048Z,97748.97
2022-11-13T02:34:49.399Z,97748.91
2022-11-13T02:37:18.420Z,97748.88
2022-11-13T02:39:47.997Z,97745.03
2022-11-13T02:42:14.563Z,97737.84
2022-11-13T02:44:41.098Z,97744.41
2022-11-13T02:47:09.927Z,97729.97
2022-11-13T02:49:36.421Z,97728.47
2022-11-13T02:52:02.985Z,97738.66
2022-11-13T02:54:29.528Z,97733.06
2022-11-13T02:56:58.796Z,97735.44
2022-11-13T02:59:27.827Z,97729.22
2022-11-13T03:01:54.401Z,97733.34
2022-11-13T03:04:21.108Z,97730.59
2022-11-13T03:06:47.710Z,97733.63
2022-11-13T03:09:14.331Z,97726.28
2022-11-13T03:11:40.832Z,97719.75
2022-11-13T03:14:07.356Z,97716.41
2022-11-13T03:16:39.633Z,97720.00
2022-11-13T03:19:06.607Z,97718.03
2022-11-13T03:21:34.329Z,97717.78
2022-11-13T03:24:01.129Z,97721.59
2022-11-13T03:26:30.095Z,97724.84
2022-11-13T03:28:56.684Z,97727.06
2022-11-13T03:31:23.317Z,97722.09
2022-11-13T03:33:53.317Z,97716.34
2022-11-13T03:36:22.431Z,97722.53
2022-11-13T03:38:48.957Z,97724.00
2022-11-13T03:41:18.455Z,97723.16
2022-11-13T03:43:44.983Z,97718.34
2022-11-13T03:46:11.543Z,97719.75
2022-11-13T03:48:40.386Z,97715.22
2022-11-13T03:51:09.322Z,97710.31
2022-11-13T03:53:36.075Z,97714.78
2022-11-13T03:56:02.734Z,97719.03
2022-11-13T03:58:29.475Z,97724.03
2022-11-13T04:00:58.943Z,97706.06
2022-11-13T04:03:27.940Z,97709.97
2022-11-13T04:05:54.469Z,97712.09
2022-11-13T04:08:21.213Z,97702.88
2022-11-13T04:10:47.746Z,97692.47
2022-11-13T04:13:14.347Z,97696.22
2022-11-13T04:15:40.912Z,97694.22
2022-11-13T04:18:09.663Z,97694.31
2022-11-13T04:20:36.412Z,97691.63
2022-11-13T04:23:08.974Z,97682.88
2022-11-13T04:25:35.471Z,97679.06
2022-11-13T04:28:04.622Z,97678.22
2022-11-13T04:30:31.122Z,97669.53
2022-11-13T04:33:02.426Z,97669.53
2022-11-13T04:35:31.044Z,97670.97
2022-11-13T04:37:57.529Z,97662.09
2022-11-13T04:40:26.532Z,97663.47
2022-11-13T04:42:55.174Z,97663.06
2022-11-13T04:45:24.066Z,97656.53
2022-11-13T04:47:55.937Z,97661.56
2022-11-13T04:50:23.247Z,97657.66
2022-11-13T04:52:49.822Z,97657.00
2022-11-13T04:55:18.902Z,97648.44
2022-11-13T04:57:45.654Z,97649.53
2022-11-13T05:00:12.765Z,97647.72
2022-11-13T05:02:39.270Z,97651.56
2022-11-13T05:05:06.163Z,97654.25
2022-11-13T05:07:32.647Z,97646.53
2022-11-13T05:09:59.176Z,97643.38
2022-11-13T05:12:28.031Z,97642.19
2022-11-13T05:14:54.528Z,97634.41
2022-11-13T05:17:26.268Z,97630.25
2022-11-13T05:19:52.854Z,97615.66
2022-11-13T05:22:21.875Z,97617.56
2022-11-13T05:24:48.351Z,97626.38
2022-11-13T05:27:17.490Z,97611.41
2022-11-13T05:29:44.594Z,97611.25
2022-11-13T05:32:11.092Z,97605.44
2022-11-13T05:34:37.597Z,97616.22
2022-11-13T05:37:04.136Z,97612.75
2022-11-13T05:39:30.641Z,97618.22
2022-11-13T05:42:01.822Z,97617.03
2022-11-13T05:44:30.613Z,97610.13
2022-11-13T05:46:59.523Z,97599.47
2022-11-13T05:49:26.042Z,97600.25
2022-11-13T05:51:58.911Z,97593.69
2022-11-13T05:54:25.408Z,97590.34
2022-11-13T05:56:56.562Z,97577.69
2022-11-13T05:59:23.167Z,97568.53
2022-11-13T06:01:51.975Z,97566.78
2022-11-13T06:04:25.834Z,97565.19
2022-11-13T06:06:54.853Z,97568.22
2022-11-13T06:09:21.567Z,97561.78
2022-11-13T06:11:50.318Z,97567.91
2022-11-13T06:14:16.834Z,97563.00
2022-11-13T06:16:43.497Z,97561.41
2022-11-13T06:19:11.148Z,97568.66
2022-11-13T06:21:42.616Z,97562.63
2022-11-13T06:24:11.916Z,97569.19
2022-11-13T06:26:41.594Z,97566.88
2022-11-13T06:29:15.729Z,97568.38
2022-11-13T06:31:44.714Z,97569.16
2022-11-13T06:34:13.369Z,97565.31
2022-11-13T06:36:42.364Z,97560.25
2022-11-13T06:39:16.498Z,97565.72
2022-11-13T06:41:43.048Z,97564.50
2022-11-13T06:44:09.574Z,97566.78
2022-11-13T06:46:36.106Z,97556.75
2022-11-13T06:49:02.638Z,97559.84
2022-11-13T06:51:30.688Z,97557.66
2022-11-13T06:53:58.194Z,97549.16
2022-11-13T06:56:25.640Z,97550.25
2022-11-13T06:58:55.862Z,97551.81
2022-11-13T07:01:24.612Z,97548.75
2022-11-13T07:03:51.228Z,97558.34
2022-11-13T07:06:22.557Z,97553.66
2022-11-13T07:08:49.505Z,97554.06
2022-11-13T07:11:24.151Z,97555.69
2022-11-13T07:13:55.388Z,97553.00
2022-11-13T07:16:21.907Z,97557.19
2022-11-13T07:18:52.714Z,97559.53
2022-11-13T07:21:22.494Z,97560.75
2022-11-13T07:23:52.647Z,97558.44
2022-11-13T07:26:22.252Z,97554.50
2022-11-13T07:28:49.750Z,97546.84
2022-11-13T07:31:17.747Z,97555.31
2022-11-13T07:33:44.666Z,97552.97
2022-11-13T07:36:13.627Z,97552.25
2022-11-13T07:38:40.122Z,97556.41
2022-11-13T07:41:07.068Z,97553.88
2022-11-13T07:43:34.161Z,97541.03
2022-11-13T07:46:01.432Z,97541.81
2022-11-13T07:48:31.024Z,97546.81
2022-11-13T07:51:02.540Z,97543.75
2022-11-13T07:53:31.823Z,97530.16
2022-11-13T07:56:04.984Z,97521.75
2022-11-13T07:58:31.908Z,97522.59
2022-11-13T08:01:05.943Z,97517.69
2022-11-13T08:03:34.917Z,97509.59
2022-11-13T08:06:07.185Z,97512.94
2022-11-13T08:08:35.017Z,97506.91
2022-11-13T08:11:11.569Z,97504.63
2022-11-13T08:13:38.526Z,97510.78
2022-11-13T08:16:05.783Z,97510.41
2022-11-13T08:18:34.889Z,97503.81
2022-11-13T08:21:11.906Z,97502.63
2022-11-13T08:23:42.546Z,97505.41
2022-11-13T08:26:10.359Z,97514.66
2022-11-13T08:28:36.900Z,97498.81
2022-11-13T08:31:03.875Z,97503.72
2022-11-13T08:33:30.895Z,97513.63
2022-11-13T08:35:59.802Z,97506.47
2022-11-13T08:38:28.947Z,97506.53
2022-11-13T08:41:08.350Z,97519.50
2022-11-13T08:43:35.396Z,97520.25
2022-11-13T08:46:01.957Z,97517.91
2022-11-13T08:48:28.634Z,97521.03
2022-11-13T08:51:00.115Z,97514.13
2022-11-13T08:53:26.801Z,97514.34
2022-11-13T08:56:01.958Z,97515.88
2022-11-13T08:58:31.159Z,97504.78
2022-11-13T09:01:04.386Z,97504.41
2022-11-13T09:03:30.957Z,97498.66
2022-11-13T09:06:00.223Z,97498.69
2022-11-13T09:08:29.395Z,97497.91
2022-11-13T09:11:03.244Z,97496.00
2022-11-13T09:13:30.015Z,97482.16
2022-11-13T09:15:59.553Z,97477.50
2022-11-13T09:18:29.168Z,97467.19
2022-11-13T09:21:00.928Z,97465.16
2022-11-13T09:23:28.784Z,97467.94
2022-11-13T09:25:55.767Z,97460.25
2022-11-13T09:28:24.752Z,97464.06
2022-11-13T09:30:51.340Z,97463.28
2022-11-13T09:33:17.897Z,97464.09
2022-11-13T09:35:44.709Z,97459.38
2022-11-13T09:38:16.105Z,97461.00
2022-11-13T09:40:59.648Z,97457.94
2022-11-13T09:43:35.439Z,97440.66
2022-11-13T09:46:34.213Z,97434.84
2022-11-13T09:49:14.907Z,97434.78
2022-11-13T09:51:47.421Z,97440.91
2022-11-13T09:54:18.366Z,97451.34
2022-11-13T09:56:56.257Z,97457.94
2022-11-13T09:59:23.564Z,97458.31
2022-11-13T10:01:57.713Z,97468.00
2022-11-13T10:05:11.722Z,97462.59
2022-11-13T10:08:11.202Z,97462.59
2022-11-13T10:11:01.959Z,97459.88
2022-11-13T10:13:38.832Z,97457.19
2022-11-13T10:16:32.988Z,97451.84
2022-11-13T10:19:08.914Z,97448.78
2022-11-13T10:21:39.843Z,97439.56
2022-11-13T10:24:24.709Z,97454.91
2022-11-13T10:26:51.312Z,97451.50
2022-11-13T10:29:20.262Z,97451.88
2022-11-13T10:31:49.404Z,97452.69
2022-11-13T10:34:19.676Z,97446.50
2022-11-13T10:37:15.264Z,97441.44
2022-11-13T10:39:47.758Z,97433.28
2022-11-13T10:42:37.723Z,97429.78
2022-11-13T10:45:09.519Z,97425.28
2022-11-13T10:48:03.662Z,97421.44
2022-11-13T10:50:36.314Z,97421.09
2022-11-13T10:53:17.773Z,97416.00
2022-11-13T10:55:45.597Z,97416.03
2022-11-13T10:58:18.511Z,97406.00
2022-11-13T11:00:49.825Z,97397.94
2022-11-13T11:03:16.378Z,97381.00
2022-11-13T11:06:14.417Z,97372.97
2022-11-13T11:08:50.545Z,97376.78
2022-11-13T11:11:37.548Z,97373.28
2022-11-13T11:14:26.854Z,97377.94
2022-11-13T11:16:54.259Z,97373.31
2022-11-13T11:19:25.656Z,97381.03
2022-11-13T11:22:04.481Z,97374.47
2022-11-13T11:24:37.300Z,97376.75
2022-11-13T11:27:17.567Z,97370.97
2022-11-13T11:29:55.555Z,97372.84
2022-11-13T11:32:50.633Z,97376.75
2022-11-13T11:35:37.308Z,97381.78
2022-11-13T11:38:14.075Z,97379.09
2022-11-13T11:40:45.140Z,97388.69
2022-11-13T11:43:25.342Z,97377.13
2022-11-13T11:45:51.952Z,97379.88
2022-11-13T11:48:27.402Z,97362.13
2022-11-13T11:51:23.846Z,97360.22
2022-11-13T11:54:12.178Z,97361.41
2022-11-13T11:56:48.565Z,97349.06
2022-11-13T11:59:36.849Z,97346.72
2022-11-13T12:02:06.419Z,97340.19
2022-11-13T12:04:46.512Z,97342.91
2022-11-13T12:07:28.576Z,97324.81
2022-11-13T12:10:07.627Z,97317.88
2022-11-13T12:12:40.094Z,97318.28
2022-11-13T12:15:15.251Z,97327.53
2022-11-13T12:17:44.698Z,97314.03
2022-11-13T12:20:31.359Z,97312.91
2022-11-13T12:23:11.471Z,97307.50
2022-11-13T12:25:56.125Z,97297.84
2022-11-13T12:28:29.192Z,97300.53
2022-11-13T12:31:39.170Z,97296.28
2022-11-13T12:34:08.410Z,97300.53
2022-11-13T12:36:37.714Z,97293.59
2022-11-13T12:39:28.799Z,97287.44
2022-11-13T12:41:59.962Z,97291.31
2022-11-13T12:44:28.995Z,97287.44
2022-11-13T12:47:01.482Z,97300.94
2022-11-13T12:49:34.775Z,97294.38
2022-11-13T12:52:17.146Z,97297.84
2022-11-13T12:54:43.722Z,97295.53
2022-11-13T12:57:13.334Z,97288.97
2022-11-13T12:59:50.675Z,97282.81
2022-11-13T13:02:45.448Z,97285.91
2022-11-13T13:05:18.381Z,97277.03
2022-11-13T13:08:08.593Z,97273.94
2022-11-13T13:10:45.500Z,97262.38
2022-11-13T13:13:24.764Z,97263.16
2022-11-13T13:16:10.334Z,97253.13
2022-11-13T13:18:40.792Z,97234.22
2022-11-13T13:21:13.737Z,97236.56
2022-11-13T13:23:48.684Z,97226.94
2022-11-13T13:26:27.177Z,97216.88
2022-11-13T13:29:08.445Z,97221.16
2022-11-13T13:31:43.644Z,97225.00
2022-11-13T13:34:34.805Z,97232.31
2022-11-13T13:37:46.546Z,97231.56
2022-11-13T13:40:19.202Z,97233.09
2022-11-13T13:43:23.276Z,97236.56
2022-11-13T13:45:52.790Z,97247.34
2022-11-13T13:48:24.074Z,97251.22
2022-11-13T13:50:51.379Z,97262.78
2022-11-13T13:53:32.699Z,97252.75
2022-11-13T13:56:02.335Z,97248.13
2022-11-13T13:58:35.121Z,97246.56
2022-11-13T14:01:18.246Z,97255.06
2022-11-13T14:03:45.776Z,97253.50
2022-11-13T14:06:22.850Z,97243.13
2022-11-13T14:08:51.951Z,97242.75
2022-11-13T14:11:29.665Z,97235.78
2022-11-13T14:14:10.977Z,97232.69
2022-11-13T14:16:56.877Z,97236.19
2022-11-13T14:19:23.804Z,97238.13
2022-11-13T14:21:59.742Z,97237.34
2022-11-13T14:24:34.023Z,97233.47
2022-11-13T14:27:06.922Z,97233.88
2022-11-13T14:29:40.367Z,97230.78
2022-11-13T14:32:23.270Z,97226.97
2022-11-13T14:34:56.943Z,97228.09
2022-11-13T14:37:36.505Z,97228.09
2022-11-13T14:40:10.651Z,97227.69
2022-11-13T14:42:44.791Z,97228.47
2022-11-13T14:45:26.648Z,97231.56
2022-11-13T14:48:27.682Z,97228.09
2022-11-13T14:51:00.810Z,97226.16
2022-11-13T14:53:39.239Z,97220.78
2022-11-13T14:56:11.606Z,97211.13
2022-11-13T14:58:47.190Z,97207.25
2022-11-13T15:01:21.271Z,97206.53
2022-11-13T15:03:51.818Z,97211.16
2022-11-13T15:06:21.248Z,97203.81
2022-11-13T15:08:54.294Z,97213.03
2022-11-13T15:11:25.778Z,97220.78
2022-11-13T15:13:54.383Z,97216.13
2022-11-13T15:16:29.153Z,97219.25
2022-11-13T15:19:12.568Z,97206.09
2022-11-13T15:21:44.889Z,97213.81
2022-11-13T15:24:19.005Z,97212.63
2022-11-13T15:26:45.638Z,97212.63
2022-11-13T15:29:12.238Z,97203.41
2022-11-13T15:31:42.868Z,97206.47
2022-11-13T15:34:13.656Z,97203.78
2022-11-13T15:36:41.027Z,97201.88
2022-11-13T15:39:13.156Z,97195.69
2022-11-13T15:41:45.152Z,97195.31
2022-11-13T15:44:14.379Z,97191.88
2022-11-13T15:46:41.068Z,97193.78
2022-11-13T15:49:07.627Z,97191.13
2022-11-13T15:51:43.215Z,97190.31
2022-11-13T15:54:16.458Z,97185.31
2022-11-13T15:56:46.861Z,97191.88
2022-11-13T15:59:14.614Z,97193.03
2022-11-13T16:01:41.787Z,97194.56
2022-11-13T16:04:09.532Z,97187.25
2022-11-13T16:06:36.219Z,97191.50
2022-11-13T16:09:06.210Z,97183.41
2022-11-13T16:11:36.474Z,97178.75
2022-11-13T16:14:03.073Z,97174.88
2022-11-13T16:16:38.556Z,97181.09
2022-11-13T16:19:12.990Z,97190.31
2022-11-13T16:21:39.581Z,97184.56
2022-11-13T16:24:06.411Z,97187.25
2022-11-13T16:26:33.051Z,97196.13
2022-11-13T16:29:13.256Z,97195.31
2022-11-13T16:31:40.401Z,97194.91
2022-11-13T16:34:09.949Z,97192.63
2022-11-13T16:36:36.793Z,97194.53
2022-11-13T16:39:04.279Z,97187.59
2022-11-13T16:41:33.532Z,97190.31
2022-11-13T16:44:00.112Z,97179.91
2022-11-13T16:46:32.764Z,97178.75
2022-11-13T16:48:59.681Z,97177.59
2022-11-13T16:51:28.441Z,97191.88
2022-11-13T16:53:57.294Z,97188.75
2022-11-13T16:56:29.041Z,97187.59
2022-11-13T16:58:56.562Z,97188.41
2022-11-13T17:01:24.110Z,97186.84
2022-11-13T17:03:55.169Z,97189.91
2022-11-13T17:06:26.576Z,97182.16
2022-11-13T17:08:55.478Z,97183.69
2022-11-13T17:11:23.571Z,97196.06
2022-11-13T17:13:54.727Z,97203.34
2022-11-13T17:16:24.587Z,97186.78
2022-11-13T17:18:54.009Z,97186.00
2022-11-13T17:21:24.458Z,97182.94
2022-11-13T17:23:58.600Z,97188.75
2022-11-13T17:26:26.093Z,97185.69
2022-11-13T17:28:58.319Z,97201.84
2022-11-13T17:31:25.067Z,97198.03
2022-11-13T17:33:55.152Z,97187.22
2022-11-13T17:36:22.311Z,97181.41
2022-11-13T17:38:51.365Z,97179.91
2022-11-13T17:41:20.631Z,97185.69
2022-11-13T17:43:47.303Z,97195.69
2022-11-13T17:46:17.632Z,97202.63
2022-11-13T17:48:44.767Z,97203.41
2022-11-13T17:51:15.259Z,97195.69
2022-11-13T17:53:46.618Z,97186.06
2022-11-13T17:56:16.428Z,97185.69
2022-11-13T17:58:45.252Z,97186.50
2022-11-13T18:01:14.661Z,97192.66
2022-11-13T18:03:41.643Z,97194.59
2022-11-13T18:06:19.535Z,97191.13
2022-11-13T18:08:48.948Z,97198.06
2022-11-13T18:11:20.275Z,97194.97
2022-11-13T18:13:50.845Z,97200.75
2022-11-13T18:16:29.681Z,97206.56
2022-11-13T18:18:58.308Z,97207.69
2022-11-13T18:21:30.809Z,97206.94
2022-11-13T18:24:09.579Z,97216.16
2022-11-13T18:26:36.489Z,97214.66
2022-11-13T18:29:05.874Z,97210.03
2022-11-13T18:31:32.399Z,97197.31
2022-11-13T18:34:01.714Z,97197.69
2022-11-13T18:36:28.710Z,97200.38
2022-11-13T18:38:57.542Z,97193.06
2022-11-13T18:41:26.533Z,97193.03
2022-11-13T18:43:53.271Z,97192.66
2022-11-13T18:46:22.912Z,97188.44
2022-11-13T18:48:54.408Z,97188.81
2022-11-13T18:51:27.665Z,97185.38
2022-11-13T18:53:59.514Z,97203.47
2022-11-13T18:56:29.041Z,97204.22
2022-11-13T18:58:57.120Z,97209.25
2022-11-13T19:01:26.659Z,97215.41
2022-11-13T19:04:21.136Z,97210.41
2022-11-13T19:06:49.295Z,97212.34
2022-11-13T19:09:19.331Z,97203.84
2022-11-13T19:11:46.009Z,97220.00
2022-11-13T19:14:16.630Z,97231.97
2022-11-13T19:16:43.193Z,97219.63
2022-11-13T19:19:18.868Z,97216.19
2022-11-13T19:21:48.404Z,97220.41
2022-11-13T19:24:19.745Z,97212.34
2022-11-13T19:26:46.432Z,97216.16
2022-11-13T19:29:13.748Z,97211.16
2022-11-13T19:31:40.652Z,97218.47
2022-11-13T19:34:08.416Z,97225.00
2022-11-13T19:36:36.290Z,97208.47
2022-11-13T19:39:04.373Z,97219.25
2022-11-13T19:41:33.215Z,97228.84
2022-11-13T19:44:02.006Z,97214.22
2022-11-13T19:46:32.132Z,97211.56
2022-11-13T19:48:58.760Z,97209.25
2022-11-13T19:51:26.462Z,97209.25
2022-11-13T19:53:54.675Z,97211.53
2022-11-13T19:56:25.130Z,97216.53
2022-11-13T19:58:52.428Z,97213.84
2022-11-13T20:01:27.351Z,97200.38
2022-11-13T20:04:00.351Z,97184.59
2022-11-13T20:06:28.612Z,97161.88
2022-11-13T20:08:55.437Z,97145.72
2022-11-13T20:11:21.968Z,97140.31
2022-11-13T20:13:48.570Z,97135.28
2022-11-13T20:16:20.957Z,97135.28
2022-11-13T20:18:50.921Z,97121.81
2022-11-13T20:21:28.690Z,97128.75
2022-11-13T20:24:01.924Z,97131.44
2022-11-13T20:26:31.115Z,97140.31
2022-11-13T20:29:00.643Z,97147.25
2022-11-13T20:31:27.864Z,97163.44
2022-11-13T20:33:57.864Z,97180.75
2022-11-13T20:36:24.966Z,97194.22
2022-11-13T20:38:53.963Z,97198.06
2022-11-13T20:41:24.080Z,97201.16
2022-11-13T20:43:55.790Z,97198.06
2022-11-13T20:46:22.755Z,97194.22
2022-11-13T20:48:51.748Z,97190.38
2022-11-13T20:51:22.892Z,97205.00
2022-11-13T20:53:49.815Z,97218.47
2022-11-13T20:56:20.718Z,97216.16
2022-11-13T20:58:49.957Z,97207.69
2022-11-13T21:01:18.787Z,97201.53
2022-11-13T21:03:46.463Z,97198.81
2022-11-13T21:06:20.716Z,97201.16
2022-11-13T21:08:53.504Z,97196.13
2022-11-13T21:11:27.111Z,97187.28
2022-11-13T21:13:57.603Z,97180.38
2022-11-13T21:16:25.039Z,97164.22
2022-11-13T21:18:55.853Z,97151.47
2022-11-13T21:21:24.547Z,97154.94
2022-11-13T21:23:55.586Z,97156.88
2022-11-13T21:26:24.348Z,97160.72
2022-11-13T21:29:00.252Z,97157.25
2022-11-13T21:31:29.403Z,97153.81
2022-11-13T21:33:56.081Z,97146.47
2022-11-13T21:36:25.147Z,97141.47
2022-11-13T21:38:53.477Z,97144.16
2022-11-13T21:41:27.167Z,97139.16
2022-11-13T21:44:05.671Z,97136.81
2022-11-13T21:46:38.552Z,97135.31
2022-11-13T21:49:06.292Z,97132.22
2022-11-13T21:51:35.502Z,97125.31
2022-11-13T21:54:04.838Z,97129.56
2022-11-13T21:56:33.626Z,97120.69
2022-11-13T21:59:03.039Z,97116.81
2022-11-13T22:01:35.072Z,97110.66
2022-11-13T22:04:07.505Z,97101.81
2022-11-13T22:06:40.559Z,97090.25
2022-11-13T22:09:14.180Z,97098.31
2022-11-13T22:11:43.455Z,97094.88
2022-11-13T22:14:14.765Z,97080.66
2022-11-13T22:16:44.137Z,97081.00
2022-11-13T22:19:21.434Z,97076.00
2022-11-13T22:21:54.551Z,97076.00
2022-11-13T22:24:21.261Z,97085.63
2022-11-13T22:26:50.383Z,97092.56
2022-11-13T22:29:19.636Z,97090.25
2022-11-13T22:31:46.738Z,97094.88
2022-11-13T22:34:13.255Z,97095.66
2022-11-13T22:36:42.135Z,97095.28
2022-11-13T22:39:10.935Z,97090.28
2022-11-13T22:41:39.731Z,97097.22
2022-11-13T22:44:12.573Z,97101.06
2022-11-13T22:46:41.497Z,97106.44
2022-11-13T22:49:08.229Z,97100.69
2022-11-13T22:51:38.339Z,97102.22
2022-11-13T22:54:12.655Z,97095.28
2022-11-13T22:56:40.831Z,97103.38
2022-11-13T22:59:10.492Z,97099.91
2022-11-13T23:01:41.271Z,97090.66
2022-11-13T23:04:14.133Z,97095.28
2022-11-13T23:06:41.640Z,97092.97
2022-11-13T23:09:08.362Z,97083.38
2022-11-13T23:11:42.329Z,97081.81
2022-11-13T23:14:15.823Z,97079.50
2022-11-13T23:16:42.962Z,97079.50
2022-11-13T23:19:09.811Z,97077.97
2022-11-13T23:21:36.384Z,97083.38
2022-11-13T23:24:05.590Z,97078.38
2022-11-13T23:26:32.129Z,97072.56
2022-11-13T23:28:58.706Z,97068.34
2022-11-13T23:31:27.471Z,97067.19
2022-11-13T23:33:58.743Z,97074.13
2022-11-13T23:36:25.319Z,97074.50
2022-11-13T23:38:56.420Z,97063.69
2022-11-13T23:41:25.250Z,97067.16
2022-11-13T23:44:08.265Z,97060.97
2022-11-13T23:46:40.389Z,97049.81
2022-11-13T23:49:09.131Z,97058.28
2022-11-13T23:51:37.914Z,97040.91
2022-11-13T23:54:06.662Z,97051.31
2022-11-13T23:56:35.499Z,97037.81
2022-11-13T23:59:02.005Z,97031.25
